Atlanta, Georgia
Traffic Map
Current Weather Conditions
Atlanta, Georgia
Clear
Clear

Feels Like: -3°
Wind Chill: -3° Ceiling: Unl
Heat Index: Visibility: 10mi
Dew Point: -4° Wind: 10mph
Humidity: 70% Direction: 360° (N)
Pressure: 30.25in Gusts: 0mph
Raw Report DataKATL 281352Z 36009KT 10SM CLR 01/M04 A3025 RMK AO2 SLP250 T00111039
Traffic Incident Summary
Active as of:
Severity:
Category:
InformationThere was an issue retrieving the traffic information for this location. Please try a different location or try again shortly.
Advertisements
Track Severe Weather on mobile